sensor_id;sensor_type;location;lat;lon;timestamp;temperature;humidity
9564;DHT22;4820;50.870;4.702;2024-03-23T00:53:54;7.70;99.90
9564;DHT22;4820;50.870;4.702;2024-03-23T00:56:19;7.60;99.90
9564;DHT22;4820;50.870;4.702;2024-03-23T00:58:45;7.70;99.90
9564;DHT22;4820;50.870;4.702;2024-03-23T01:01:11;7.70;99.90
9564;DHT22;4820;50.870;4.702;2024-03-23T01:03:37;7.80;99.90
9564;DHT22;4820;50.870;4.702;2024-03-23T01:06:03;7.90;99.90
9564;DHT22;4820;50.870;4.702;2024-03-23T01:08:33;8.00;99.90
9564;DHT22;4820;50.870;4.702;2024-03-23T01:11:00;8.10;99.90
9564;DHT22;4820;50.870;4.702;2024-03-23T01:13:27;8.20;99.90
9564;DHT22;4820;50.870;4.702;2024-03-23T01:15:54;8.20;99.90
9564;DHT22;4820;50.870;4.702;2024-03-23T01:18:21;8.10;99.90
9564;DHT22;4820;50.870;4.702;2024-03-23T01:20:48;8.10;99.90
9564;DHT22;4820;50.870;4.702;2024-03-23T01:23:13;8.10;99.90
9564;DHT22;4820;50.870;4.702;2024-03-23T01:25:39;8.10;99.90
9564;DHT22;4820;50.870;4.702;2024-03-23T01:28:06;8.20;99.90
9564;DHT22;4820;50.870;4.702;2024-03-23T01:30:32;8.20;99.90
9564;DHT22;4820;50.870;4.702;2024-03-23T01:32:58;8.30;99.90
9564;DHT22;4820;50.870;4.702;2024-03-23T01:35:24;8.30;99.90
9564;DHT22;4820;50.870;4.702;2024-03-23T01:37:49;8.30;99.90
9564;DHT22;4820;50.870;4.702;2024-03-23T01:40:19;8.30;99.90
9564;DHT22;4820;50.870;4.702;2024-03-23T01:42:57;8.30;99.90
9564;DHT22;4820;50.870;4.702;2024-03-23T01:45:24;8.30;99.90
9564;DHT22;4820;50.870;4.702;2024-03-23T01:47:53;8.30;99.90
9564;DHT22;4820;50.870;4.702;2024-03-23T01:50:19;8.30;99.90
9564;DHT22;4820;50.870;4.702;2024-03-23T01:52:48;8.30;99.90
9564;DHT22;4820;50.870;4.702;2024-03-23T01:55:14;8.30;99.90
9564;DHT22;4820;50.870;4.702;2024-03-23T01:57:40;8.30;99.90
9564;DHT22;4820;50.870;4.702;2024-03-23T02:00:06;8.30;99.90
9564;DHT22;4820;50.870;4.702;2024-03-23T02:02:32;8.30;99.90
9564;DHT22;4820;50.870;4.702;2024-03-23T02:04:58;8.20;99.90
9564;DHT22;4820;50.870;4.702;2024-03-23T02:07:24;8.20;99.90
9564;DHT22;4820;50.870;4.702;2024-03-23T02:09:53;8.10;99.90
9564;DHT22;4820;50.870;4.702;2024-03-23T02:12:20;8.00;99.90
9564;DHT22;4820;50.870;4.702;2024-03-23T02:14:46;8.00;99.90
9564;DHT22;4820;50.870;4.702;2024-03-23T02:17:13;8.00;99.90
9564;DHT22;4820;50.870;4.702;2024-03-23T02:19:39;7.90;99.90
9564;DHT22;4820;50.870;4.702;2024-03-23T02:22:04;7.90;99.90
9564;DHT22;4820;50.870;4.702;2024-03-23T02:24:32;7.90;99.90
9564;DHT22;4820;50.870;4.702;2024-03-23T02:26:59;7.80;99.90
9564;DHT22;4820;50.870;4.702;2024-03-23T02:29:25;7.90;99.90
9564;DHT22;4820;50.870;4.702;2024-03-23T02:31:51;7.90;99.90
9564;DHT22;4820;50.870;4.702;2024-03-23T02:34:16;7.90;99.90
9564;DHT22;4820;50.870;4.702;2024-03-23T02:36:42;7.90;99.90
9564;DHT22;4820;50.870;4.702;2024-03-23T02:39:09;7.90;99.90
9564;DHT22;4820;50.870;4.702;2024-03-23T02:41:35;7.90;99.90
9564;DHT22;4820;50.870;4.702;2024-03-23T02:44:02;7.90;99.90
9564;DHT22;4820;50.870;4.702;2024-03-23T02:46:29;8.00;99.90
9564;DHT22;4820;50.870;4.702;2024-03-23T02:48:56;8.00;99.90
9564;DHT22;4820;50.870;4.702;2024-03-23T02:51:23;8.00;99.90
9564;DHT22;4820;50.870;4.702;2024-03-23T02:53:48;8.00;99.90
9564;DHT22;4820;50.870;4.702;2024-03-23T02:56:14;8.00;99.90
9564;DHT22;4820;50.870;4.702;2024-03-23T02:58:43;8.00;99.90
9564;DHT22;4820;50.870;4.702;2024-03-23T03:01:08;8.00;99.90
9564;DHT22;4820;50.870;4.702;2024-03-23T03:03:34;8.00;99.90
9564;DHT22;4820;50.870;4.702;2024-03-23T03:06:00;8.00;99.90
9564;DHT22;4820;50.870;4.702;2024-03-23T03:08:25;8.00;99.90
9564;DHT22;4820;50.870;4.702;2024-03-23T03:10:51;8.00;99.90
9564;DHT22;4820;50.870;4.702;2024-03-23T03:13:17;8.00;99.90
9564;DHT22;4820;50.870;4.702;2024-03-23T03:15:43;8.00;99.90
9564;DHT22;4820;50.870;4.702;2024-03-23T03:18:10;8.10;99.90
9564;DHT22;4820;50.870;4.702;2024-03-23T03:20:39;8.10;99.90
9564;DHT22;4820;50.870;4.702;2024-03-23T03:23:07;8.10;99.90
9564;DHT22;4820;50.870;4.702;2024-03-23T03:25:34;8.20;99.90
9564;DHT22;4820;50.870;4.702;2024-03-23T03:27:59;8.20;99.90
9564;DHT22;4820;50.870;4.702;2024-03-23T03:30:25;8.20;99.90
9564;DHT22;4820;50.870;4.702;2024-03-23T03:32:53;8.30;99.90
9564;DHT22;4820;50.870;4.702;2024-03-23T03:35:19;8.30;99.90
9564;DHT22;4820;50.870;4.702;2024-03-23T03:37:45;8.30;99.90
9564;DHT22;4820;50.870;4.702;2024-03-23T03:40:11;8.30;99.90
9564;DHT22;4820;50.870;4.702;2024-03-23T03:42:37;8.30;99.90
9564;DHT22;4820;50.870;4.702;2024-03-23T03:45:04;8.30;99.90
9564;DHT22;4820;50.870;4.702;2024-03-23T03:47:30;8.20;99.90
9564;DHT22;4820;50.870;4.702;2024-03-23T03:49:56;8.20;99.90
9564;DHT22;4820;50.870;4.702;2024-03-23T03:52:22;8.20;99.90
9564;DHT22;4820;50.870;4.702;2024-03-23T03:54:47;8.20;99.90
9564;DHT22;4820;50.870;4.702;2024-03-23T03:57:13;8.20;99.90
9564;DHT22;4820;50.870;4.702;2024-03-23T03:59:39;8.20;99.90
9564;DHT22;4820;50.870;4.702;2024-03-23T04:02:04;8.20;99.90
9564;DHT22;4820;50.870;4.702;2024-03-23T04:04:30;8.20;99.90
9564;DHT22;4820;50.870;4.702;2024-03-23T04:07:00;8.20;99.90
9564;DHT22;4820;50.870;4.702;2024-03-23T04:09:26;8.10;99.90
9564;DHT22;4820;50.870;4.702;2024-03-23T04:11:52;8.10;99.90
9564;DHT22;4820;50.870;4.702;2024-03-23T04:14:17;8.00;99.90
9564;DHT22;4820;50.870;4.702;2024-03-23T04:16:43;7.90;99.90
9564;DHT22;4820;50.870;4.702;2024-03-23T04:19:09;7.90;99.90
9564;DHT22;4820;50.870;4.702;2024-03-23T04:21:37;7.90;99.90
9564;DHT22;4820;50.870;4.702;2024-03-23T04:24:04;7.90;99.90
9564;DHT22;4820;50.870;4.702;2024-03-23T04:26:30;7.90;99.90
9564;DHT22;4820;50.870;4.702;2024-03-23T04:29:05;7.90;99.90
9564;DHT22;4820;50.870;4.702;2024-03-23T04:31:31;7.90;99.90
9564;DHT22;4820;50.870;4.702;2024-03-23T04:34:02;7.90;99.90
9564;DHT22;4820;50.870;4.702;2024-03-23T04:36:28;7.90;99.90
9564;DHT22;4820;50.870;4.702;2024-03-23T04:38:54;7.90;99.90
9564;DHT22;4820;50.870;4.702;2024-03-23T04:41:19;7.90;99.90
9564;DHT22;4820;50.870;4.702;2024-03-23T04:43:45;7.90;99.90
9564;DHT22;4820;50.870;4.702;2024-03-23T04:46:12;7.90;99.90
9564;DHT22;4820;50.870;4.702;2024-03-23T04:48:37;7.90;99.90
9564;DHT22;4820;50.870;4.702;2024-03-23T04:51:04;7.90;99.90
9564;DHT22;4820;50.870;4.702;2024-03-23T04:53:29;7.90;99.90
9564;DHT22;4820;50.870;4.702;2024-03-23T04:55:58;7.90;99.90
9564;DHT22;4820;50.870;4.702;2024-03-23T04:58:27;8.00;99.90
9564;DHT22;4820;50.870;4.702;2024-03-23T05:00:57;8.00;99.90
9564;DHT22;4820;50.870;4.702;2024-03-23T05:03:23;8.00;99.90
9564;DHT22;4820;50.870;4.702;2024-03-23T05:05:49;7.90;99.90
9564;DHT22;4820;50.870;4.702;2024-03-23T05:08:16;7.90;99.90
9564;DHT22;4820;50.870;4.702;2024-03-23T05:10:42;7.90;99.90
9564;DHT22;4820;50.870;4.702;2024-03-23T05:13:08;8.00;99.90
9564;DHT22;4820;50.870;4.702;2024-03-23T05:15:35;7.90;99.90
9564;DHT22;4820;50.870;4.702;2024-03-23T05:18:01;7.90;99.90
9564;DHT22;4820;50.870;4.702;2024-03-23T05:20:27;7.90;99.90
9564;DHT22;4820;50.870;4.702;2024-03-23T05:22:55;7.90;99.90
9564;DHT22;4820;50.870;4.702;2024-03-23T05:25:20;7.90;99.90
9564;DHT22;4820;50.870;4.702;2024-03-23T05:27:46;7.90;99.90
9564;DHT22;4820;50.870;4.702;2024-03-23T05:30:12;7.80;99.90
9564;DHT22;4820;50.870;4.702;2024-03-23T05:32:38;7.80;99.90
9564;DHT22;4820;50.870;4.702;2024-03-23T05:35:07;7.80;99.90
9564;DHT22;4820;50.870;4.702;2024-03-23T05:37:33;7.80;99.90
9564;DHT22;4820;50.870;4.702;2024-03-23T05:40:00;7.80;99.90
9564;DHT22;4820;50.870;4.702;2024-03-23T05:42:26;7.70;99.90
9564;DHT22;4820;50.870;4.702;2024-03-23T05:44:52;7.70;99.90
9564;DHT22;4820;50.870;4.702;2024-03-23T05:47:18;7.70;99.90
9564;DHT22;4820;50.870;4.702;2024-03-23T05:49:45;7.60;99.90
9564;DHT22;4820;50.870;4.702;2024-03-23T05:52:11;7.50;99.90
9564;DHT22;4820;50.870;4.702;2024-03-23T05:54:37;7.50;99.90
9564;DHT22;4820;50.870;4.702;2024-03-23T05:57:04;7.50;99.90
9564;DHT22;4820;50.870;4.702;2024-03-23T05:59:31;7.50;99.90
9564;DHT22;4820;50.870;4.702;2024-03-23T06:01:56;7.50;99.90
9564;DHT22;4820;50.870;4.702;2024-03-23T06:04:22;7.50;99.90
9564;DHT22;4820;50.870;4.702;2024-03-23T06:06:51;7.50;99.90
9564;DHT22;4820;50.870;4.702;2024-03-23T06:09:20;7.60;99.90
9564;DHT22;4820;50.870;4.702;2024-03-23T06:11:48;7.60;99.90
9564;DHT22;4820;50.870;4.702;2024-03-23T06:14:14;7.70;99.90
9564;DHT22;4820;50.870;4.702;2024-03-23T06:16:40;7.70;99.90
9564;DHT22;4820;50.870;4.702;2024-03-23T06:19:06;7.70;99.90
9564;DHT22;4820;50.870;4.702;2024-03-23T06:21:32;7.80;99.90
9564;DHT22;4820;50.870;4.702;2024-03-23T06:23:59;7.80;99.90
9564;DHT22;4820;50.870;4.702;2024-03-23T06:26:25;7.80;99.90
9564;DHT22;4820;50.870;4.702;2024-03-23T06:28:50;7.90;99.90
9564;DHT22;4820;50.870;4.702;2024-03-23T06:31:16;7.90;99.90
9564;DHT22;4820;50.870;4.702;2024-03-23T06:33:42;7.90;99.90
9564;DHT22;4820;50.870;4.702;2024-03-23T06:36:11;8.00;99.90
9564;DHT22;4820;50.870;4.702;2024-03-23T06:38:37;8.00;99.90
9564;DHT22;4820;50.870;4.702;2024-03-23T06:41:04;8.00;99.90
9564;DHT22;4820;50.870;4.702;2024-03-23T06:43:30;8.00;99.90
9564;DHT22;4820;50.870;4.702;2024-03-23T06:45:56;8.00;99.90
9564;DHT22;4820;50.870;4.702;2024-03-23T06:48:22;8.00;99.90
9564;DHT22;4820;50.870;4.702;2024-03-23T06:50:48;8.00;99.90
9564;DHT22;4820;50.870;4.702;2024-03-23T06:53:14;7.90;99.90
9564;DHT22;4820;50.870;4.702;2024-03-23T06:55:40;7.90;99.90
9564;DHT22;4820;50.870;4.702;2024-03-23T06:58:07;8.00;99.90
9564;DHT22;4820;50.870;4.702;2024-03-23T07:00:33;8.00;99.90
9564;DHT22;4820;50.870;4.702;2024-03-23T07:02:59;8.00;99.90
9564;DHT22;4820;50.870;4.702;2024-03-23T07:05:25;8.00;99.90
9564;DHT22;4820;50.870;4.702;2024-03-23T07:07:51;8.10;99.90
9564;DHT22;4820;50.870;4.702;2024-03-23T07:10:17;8.10;99.90
9564;DHT22;4820;50.870;4.702;2024-03-23T07:12:43;8.20;99.90
9564;DHT22;4820;50.870;4.702;2024-03-23T07:15:09;8.20;99.90
9564;DHT22;4820;50.870;4.702;2024-03-23T07:17:35;8.20;99.90
9564;DHT22;4820;50.870;4.702;2024-03-23T07:20:02;8.20;99.90
9564;DHT22;4820;50.870;4.702;2024-03-23T07:22:30;8.20;99.90
9564;DHT22;4820;50.870;4.702;2024-03-23T07:24:59;8.30;99.90
9564;DHT22;4820;50.870;4.702;2024-03-23T07:27:25;8.50;99.90
9564;DHT22;4820;50.870;4.702;2024-03-23T07:29:51;8.60;99.90
9564;DHT22;4820;50.870;4.702;2024-03-23T07:32:18;8.60;99.90
9564;DHT22;4820;50.870;4.702;2024-03-23T07:34:43;8.50;99.90
9564;DHT22;4820;50.870;4.702;2024-03-23T07:37:10;8.30;99.90
9564;DHT22;4820;50.870;4.702;2024-03-23T07:39:36;8.20;99.90
9564;DHT22;4820;50.870;4.702;2024-03-23T07:42:02;8.00;99.90
9564;DHT22;4820;50.870;4.702;2024-03-23T07:44:28;7.90;99.90
9564;DHT22;4820;50.870;4.702;2024-03-23T07:46:54;7.80;99.90
9564;DHT22;4820;50.870;4.702;2024-03-23T07:49:20;7.70;99.90
9564;DHT22;4820;50.870;4.702;2024-03-23T07:51:46;7.70;99.90
9564;DHT22;4820;50.870;4.702;2024-03-23T07:54:15;7.70;99.90
9564;DHT22;4820;50.870;4.702;2024-03-23T07:56:41;7.60;99.90
9564;DHT22;4820;50.870;4.702;2024-03-23T07:59:07;7.60;99.90
9564;DHT22;4820;50.870;4.702;2024-03-23T08:01:33;7.50;99.90
9564;DHT22;4820;50.870;4.702;2024-03-23T08:04:00;7.60;99.90
9564;DHT22;4820;50.870;4.702;2024-03-23T08:06:26;7.60;99.90
9564;DHT22;4820;50.870;4.702;2024-03-23T08:08:55;7.60;99.90
9564;DHT22;4820;50.870;4.702;2024-03-23T08:11:31;7.70;99.90
9564;DHT22;4820;50.870;4.702;2024-03-23T08:13:59;7.80;99.90
9564;DHT22;4820;50.870;4.702;2024-03-23T08:16:25;7.90;99.90
9564;DHT22;4820;50.870;4.702;2024-03-23T08:18:54;7.90;99.90
9564;DHT22;4820;50.870;4.702;2024-03-23T08:21:21;8.00;99.90
9564;DHT22;4820;50.870;4.702;2024-03-23T08:23:47;8.10;99.90
9564;DHT22;4820;50.870;4.702;2024-03-23T08:26:16;8.20;99.90
9564;DHT22;4820;50.870;4.702;2024-03-23T08:28:43;8.30;99.90
9564;DHT22;4820;50.870;4.702;2024-03-23T08:31:11;8.50;99.90
9564;DHT22;4820;50.870;4.702;2024-03-23T08:33:37;8.70;99.90
9564;DHT22;4820;50.870;4.702;2024-03-23T08:36:06;8.80;99.90
9564;DHT22;4820;50.870;4.702;2024-03-23T08:38:33;8.80;99.90
9564;DHT22;4820;50.870;4.702;2024-03-23T08:41:06;8.80;99.90
9564;DHT22;4820;50.870;4.702;2024-03-23T08:43:39;8.90;99.90
9564;DHT22;4820;50.870;4.702;2024-03-23T08:46:13;8.90;99.90
9564;DHT22;4820;50.870;4.702;2024-03-23T08:48:40;9.00;99.90
9564;DHT22;4820;50.870;4.702;2024-03-23T08:51:09;9.00;99.90
9564;DHT22;4820;50.870;4.702;2024-03-23T08:53:35;9.10;99.90
9564;DHT22;4820;50.870;4.702;2024-03-23T08:56:01;9.10;99.90
9564;DHT22;4820;50.870;4.702;2024-03-23T08:58:29;9.10;99.90
9564;DHT22;4820;50.870;4.702;2024-03-23T09:00:56;9.20;99.90
9564;DHT22;4820;50.870;4.702;2024-03-23T09:03:25;9.20;99.90
9564;DHT22;4820;50.870;4.702;2024-03-23T09:05:52;9.20;99.90
9564;DHT22;4820;50.870;4.702;2024-03-23T09:08:20;9.20;99.90
9564;DHT22;4820;50.870;4.702;2024-03-23T09:10:46;9.10;99.90
9564;DHT22;4820;50.870;4.702;2024-03-23T09:13:12;9.00;99.90
9564;DHT22;4820;50.870;4.702;2024-03-23T09:15:49;9.10;99.90
9564;DHT22;4820;50.870;4.702;2024-03-23T09:18:15;9.00;99.90
9564;DHT22;4820;50.870;4.702;2024-03-23T09:20:41;9.00;99.90
9564;DHT22;4820;50.870;4.702;2024-03-23T09:23:07;9.00;99.90
9564;DHT22;4820;50.870;4.702;2024-03-23T09:25:39;8.90;99.90
9564;DHT22;4820;50.870;4.702;2024-03-23T09:28:06;8.90;99.90
9564;DHT22;4820;50.870;4.702;2024-03-23T09:30:34;9.10;99.90
9564;DHT22;4820;50.870;4.702;2024-03-23T09:33:00;9.20;99.90
9564;DHT22;4820;50.870;4.702;2024-03-23T09:35:26;9.30;99.90
9564;DHT22;4820;50.870;4.702;2024-03-23T09:37:52;9.50;99.90
9564;DHT22;4820;50.870;4.702;2024-03-23T09:40:18;9.50;99.90
9564;DHT22;4820;50.870;4.702;2024-03-23T09:42:50;9.50;99.90
9564;DHT22;4820;50.870;4.702;2024-03-23T09:45:20;9.50;99.90
9564;DHT22;4820;50.870;4.702;2024-03-23T09:47:46;9.30;99.90
9564;DHT22;4820;50.870;4.702;2024-03-23T09:50:13;9.30;99.90
9564;DHT22;4820;50.870;4.702;2024-03-23T09:52:39;9.40;99.90
9564;DHT22;4820;50.870;4.702;2024-03-23T09:55:11;9.30;99.90
9564;DHT22;4820;50.870;4.702;2024-03-23T09:57:38;9.30;99.90
9564;DHT22;4820;50.870;4.702;2024-03-23T10:00:06;9.40;99.90
9564;DHT22;4820;50.870;4.702;2024-03-23T10:02:33;9.40;99.90
9564;DHT22;4820;50.870;4.702;2024-03-23T10:04:59;9.40;99.90
9564;DHT22;4820;50.870;4.702;2024-03-23T10:07:25;9.50;99.90
9564;DHT22;4820;50.870;4.702;2024-03-23T10:09:54;9.70;99.90
9564;DHT22;4820;50.870;4.702;2024-03-23T10:12:20;9.80;99.90
9564;DHT22;4820;50.870;4.702;2024-03-23T10:14:45;9.80;99.90
9564;DHT22;4820;50.870;4.702;2024-03-23T10:19:47;9.80;99.90
9564;DHT22;4820;50.870;4.702;2024-03-23T10:22:23;9.80;99.90
9564;DHT22;4820;50.870;4.702;2024-03-23T10:24:51;9.60;99.90
9564;DHT22;4820;50.870;4.702;2024-03-23T10:27:20;9.60;99.90
9564;DHT22;4820;50.870;4.702;2024-03-23T10:29:49;9.50;99.90
9564;DHT22;4820;50.870;4.702;2024-03-23T10:32:17;9.50;99.90
9564;DHT22;4820;50.870;4.702;2024-03-23T10:34:43;9.50;99.90
9564;DHT22;4820;50.870;4.702;2024-03-23T10:37:09;9.50;99.90
9564;DHT22;4820;50.870;4.702;2024-03-23T10:39:37;9.40;99.90
9564;DHT22;4820;50.870;4.702;2024-03-23T10:42:04;9.50;99.90
9564;DHT22;4820;50.870;4.702;2024-03-23T10:44:32;9.60;99.90
9564;DHT22;4820;50.870;4.702;2024-03-23T10:46:58;9.60;99.90
9564;DHT22;4820;50.870;4.702;2024-03-23T10:49:32;9.70;99.90
9564;DHT22;4820;50.870;4.702;2024-03-23T10:51:58;10.00;99.90
9564;DHT22;4820;50.870;4.702;2024-03-23T10:54:25;10.20;99.90
9564;DHT22;4820;50.870;4.702;2024-03-23T10:57:14;10.40;99.90
9564;DHT22;4820;50.870;4.702;2024-03-23T10:59:40;10.30;99.90
9564;DHT22;4820;50.870;4.702;2024-03-23T11:02:06;10.20;99.90
9564;DHT22;4820;50.870;4.702;2024-03-23T11:04:38;10.00;99.90
9564;DHT22;4820;50.870;4.702;2024-03-23T11:09:49;10.00;99.90
9564;DHT22;4820;50.870;4.702;2024-03-23T11:14:51;10.40;99.90
9564;DHT22;4820;50.870;4.702;2024-03-23T11:17:21;10.80;99.90
9564;DHT22;4820;50.870;4.702;2024-03-23T11:20:06;11.00;99.90
9564;DHT22;4820;50.870;4.702;2024-03-23T11:22:42;11.10;99.90
9564;DHT22;4820;50.870;4.702;2024-03-23T11:25:22;11.10;99.90
9564;DHT22;4820;50.870;4.702;2024-03-23T11:27:50;11.00;99.90
9564;DHT22;4820;50.870;4.702;2024-03-23T11:32:48;11.00;99.90
9564;DHT22;4820;50.870;4.702;2024-03-23T11:35:39;10.90;99.90
9564;DHT22;4820;50.870;4.702;2024-03-23T11:38:13;10.90;99.90
9564;DHT22;4820;50.870;4.702;2024-03-23T11:40:47;11.10;99.90
9564;DHT22;4820;50.870;4.702;2024-03-23T11:43:20;11.30;99.90
9564;DHT22;4820;50.870;4.702;2024-03-23T11:45:49;11.50;99.90
9564;DHT22;4820;50.870;4.702;2024-03-23T11:48:19;11.50;99.90
9564;DHT22;4820;50.870;4.702;2024-03-23T11:50:51;11.50;99.90
9564;DHT22;4820;50.870;4.702;2024-03-23T11:53:24;11.70;99.90
9564;DHT22;4820;50.870;4.702;2024-03-23T11:55:56;11.90;99.90
9564;DHT22;4820;50.870;4.702;2024-03-23T11:58:26;11.90;99.90
9564;DHT22;4820;50.870;4.702;2024-03-23T12:00:52;11.70;99.90
9564;DHT22;4820;50.870;4.702;2024-03-23T12:03:19;11.80;99.90
9564;DHT22;4820;50.870;4.702;2024-03-23T12:05:56;11.70;99.90
9564;DHT22;4820;50.870;4.702;2024-03-23T12:08:23;11.60;99.90
9564;DHT22;4820;50.870;4.702;2024-03-23T12:11:08;11.60;99.90
9564;DHT22;4820;50.870;4.702;2024-03-23T12:13:37;11.00;99.90
9564;DHT22;4820;50.870;4.702;2024-03-23T12:16:16;10.80;99.90
9564;DHT22;4820;50.870;4.702;2024-03-23T12:18:43;10.70;99.90
9564;DHT22;4820;50.870;4.702;2024-03-23T12:21:09;10.80;99.90
9564;DHT22;4820;50.870;4.702;2024-03-23T12:23:36;10.80;99.90
9564;DHT22;4820;50.870;4.702;2024-03-23T12:26:02;10.70;99.90
9564;DHT22;4820;50.870;4.702;2024-03-23T12:28:28;10.70;99.90
9564;DHT22;4820;50.870;4.702;2024-03-23T12:30:54;10.80;99.90
9564;DHT22;4820;50.870;4.702;2024-03-23T12:33:20;10.90;99.90
9564;DHT22;4820;50.870;4.702;2024-03-23T12:35:49;10.90;99.90
9564;DHT22;4820;50.870;4.702;2024-03-23T12:38:15;11.00;99.90
9564;DHT22;4820;50.870;4.702;2024-03-23T12:40:42;11.10;99.90
9564;DHT22;4820;50.870;4.702;2024-03-23T12:43:11;11.10;99.90
9564;DHT22;4820;50.870;4.702;2024-03-23T12:45:37;11.00;99.90
9564;DHT22;4820;50.870;4.702;2024-03-23T12:48:03;10.60;99.90
9564;DHT22;4820;50.870;4.702;2024-03-23T12:50:29;10.30;99.90
9564;DHT22;4820;50.870;4.702;2024-03-23T12:52:55;9.90;99.90
9564;DHT22;4820;50.870;4.702;2024-03-23T12:55:20;9.50;99.90
9564;DHT22;4820;50.870;4.702;2024-03-23T12:57:47;9.40;99.90
9564;DHT22;4820;50.870;4.702;2024-03-23T13:00:14;9.50;99.90
9564;DHT22;4820;50.870;4.702;2024-03-23T13:02:43;9.60;99.90
9564;DHT22;4820;50.870;4.702;2024-03-23T13:05:11;9.70;99.90
9564;DHT22;4820;50.870;4.702;2024-03-23T13:07:37;9.90;99.90
9564;DHT22;4820;50.870;4.702;2024-03-23T13:10:05;10.00;99.90
9564;DHT22;4820;50.870;4.702;2024-03-23T13:12:32;10.10;99.90
9564;DHT22;4820;50.870;4.702;2024-03-23T13:14:59;10.40;99.90
9564;DHT22;4820;50.870;4.702;2024-03-23T13:17:25;10.50;99.90
9564;DHT22;4820;50.870;4.702;2024-03-23T13:19:54;10.70;99.90
9564;DHT22;4820;50.870;4.702;2024-03-23T13:22:21;10.80;99.90
9564;DHT22;4820;50.870;4.702;2024-03-23T13:24:46;11.10;99.90
9564;DHT22;4820;50.870;4.702;2024-03-23T13:27:12;11.40;99.90
9564;DHT22;4820;50.870;4.702;2024-03-23T13:29:38;11.60;99.90
9564;DHT22;4820;50.870;4.702;2024-03-23T13:32:04;11.70;99.90
9564;DHT22;4820;50.870;4.702;2024-03-23T13:34:30;11.70;99.90
9564;DHT22;4820;50.870;4.702;2024-03-23T13:36:57;11.70;99.90
9564;DHT22;4820;50.870;4.702;2024-03-23T13:39:26;11.70;99.90
9564;DHT22;4820;50.870;4.702;2024-03-23T13:41:54;11.60;99.90
9564;DHT22;4820;50.870;4.702;2024-03-23T13:44:22;11.50;99.90
9564;DHT22;4820;50.870;4.702;2024-03-23T13:46:48;11.40;99.90
9564;DHT22;4820;50.870;4.702;2024-03-23T13:49:27;11.30;99.90
9564;DHT22;4820;50.870;4.702;2024-03-23T13:51:56;11.10;99.90
9564;DHT22;4820;50.870;4.702;2024-03-23T13:54:26;11.00;99.90
9564;DHT22;4820;50.870;4.702;2024-03-23T13:56:52;10.90;99.90
9564;DHT22;4820;50.870;4.702;2024-03-23T13:59:20;10.80;99.90
9564;DHT22;4820;50.870;4.702;2024-03-23T14:01:46;10.90;99.90
9564;DHT22;4820;50.870;4.702;2024-03-23T14:04:13;10.80;99.90
9564;DHT22;4820;50.870;4.702;2024-03-23T14:06:38;10.80;99.90
9564;DHT22;4820;50.870;4.702;2024-03-23T14:09:05;10.70;99.90
9564;DHT22;4820;50.870;4.702;2024-03-23T14:11:34;10.60;99.90
9564;DHT22;4820;50.870;4.702;2024-03-23T14:14:01;10.20;99.90
9564;DHT22;4820;50.870;4.702;2024-03-23T14:16:29;9.60;99.90
9564;DHT22;4820;50.870;4.702;2024-03-23T14:18:55;9.30;99.90
9564;DHT22;4820;50.870;4.702;2024-03-23T14:21:20;9.10;99.90
9564;DHT22;4820;50.870;4.702;2024-03-23T14:23:46;9.00;99.90
9564;DHT22;4820;50.870;4.702;2024-03-23T14:26:13;9.00;99.90
9564;DHT22;4820;50.870;4.702;2024-03-23T14:28:38;9.00;99.90
9564;DHT22;4820;50.870;4.702;2024-03-23T14:31:04;9.00;99.90
9564;DHT22;4820;50.870;4.702;2024-03-23T14:33:39;9.10;99.90
9564;DHT22;4820;50.870;4.702;2024-03-23T14:36:14;9.20;99.90
9564;DHT22;4820;50.870;4.702;2024-03-23T14:38:39;9.10;99.90
9564;DHT22;4820;50.870;4.702;2024-03-23T14:41:06;9.00;99.90
9564;DHT22;4820;50.870;4.702;2024-03-23T14:43:32;9.00;99.90
9564;DHT22;4820;50.870;4.702;2024-03-23T14:46:08;9.00;99.90
9564;DHT22;4820;50.870;4.702;2024-03-23T14:48:34;9.00;99.90
9564;DHT22;4820;50.870;4.702;2024-03-23T14:51:01;9.10;99.90
9564;DHT22;4820;50.870;4.702;2024-03-23T14:53:27;9.10;99.90
9564;DHT22;4820;50.870;4.702;2024-03-23T14:55:56;9.10;99.90
9564;DHT22;4820;50.870;4.702;2024-03-23T14:58:22;9.20;99.90
9564;DHT22;4820;50.870;4.702;2024-03-23T15:00:48;9.30;99.90
9564;DHT22;4820;50.870;4.702;2024-03-23T15:03:14;9.40;99.90
9564;DHT22;4820;50.870;4.702;2024-03-23T15:05:40;9.50;99.90
9564;DHT22;4820;50.870;4.702;2024-03-23T15:08:07;9.60;99.90
9564;DHT22;4820;50.870;4.702;2024-03-23T15:10:33;9.80;99.90
9564;DHT22;4820;50.870;4.702;2024-03-23T15:12:58;10.10;99.90
9564;DHT22;4820;50.870;4.702;2024-03-23T15:15:24;10.30;99.90
9564;DHT22;4820;50.870;4.702;2024-03-23T15:17:50;10.40;99.90
9564;DHT22;4820;50.870;4.702;2024-03-23T15:20:16;10.50;99.90
9564;DHT22;4820;50.870;4.702;2024-03-23T15:22:42;10.40;99.90
9564;DHT22;4820;50.870;4.702;2024-03-23T15:25:09;10.40;99.90
9564;DHT22;4820;50.870;4.702;2024-03-23T15:27:35;10.40;99.90
9564;DHT22;4820;50.870;4.702;2024-03-23T15:30:01;10.40;99.90
9564;DHT22;4820;50.870;4.702;2024-03-23T15:32:26;10.40;99.90
9564;DHT22;4820;50.870;4.702;2024-03-23T15:34:52;10.40;99.90
9564;DHT22;4820;50.870;4.702;2024-03-23T15:37:18;10.40;99.90
9564;DHT22;4820;50.870;4.702;2024-03-23T15:39:43;10.40;99.90
9564;DHT22;4820;50.870;4.702;2024-03-23T15:42:09;10.40;99.90
9564;DHT22;4820;50.870;4.702;2024-03-23T15:44:35;10.40;99.90
9564;DHT22;4820;50.870;4.702;2024-03-23T15:47:01;10.40;99.90
9564;DHT22;4820;50.870;4.702;2024-03-23T15:49:27;10.30;99.90
9564;DHT22;4820;50.870;4.702;2024-03-23T15:51:52;10.30;99.90
9564;DHT22;4820;50.870;4.702;2024-03-23T15:54:19;10.30;99.90
9564;DHT22;4820;50.870;4.702;2024-03-23T15:56:44;10.30;99.90
9564;DHT22;4820;50.870;4.702;2024-03-23T15:59:10;10.30;99.90
9564;DHT22;4820;50.870;4.702;2024-03-23T16:01:36;10.30;99.90
9564;DHT22;4820;50.870;4.702;2024-03-23T16:04:04;10.20;99.90
9564;DHT22;4820;50.870;4.702;2024-03-23T16:06:29;10.20;99.90
9564;DHT22;4820;50.870;4.702;2024-03-23T16:08:55;10.10;99.90
9564;DHT22;4820;50.870;4.702;2024-03-23T16:11:22;10.10;99.90
9564;DHT22;4820;50.870;4.702;2024-03-23T16:13:47;10.00;99.90
9564;DHT22;4820;50.870;4.702;2024-03-23T16:16:13;10.00;99.90
9564;DHT22;4820;50.870;4.702;2024-03-23T16:18:39;10.10;99.90
9564;DHT22;4820;50.870;4.702;2024-03-23T16:21:06;10.10;99.90
9564;DHT22;4820;50.870;4.702;2024-03-23T16:23:34;10.20;99.90
9564;DHT22;4820;50.870;4.702;2024-03-23T16:26:02;10.10;99.90
9564;DHT22;4820;50.870;4.702;2024-03-23T16:28:36;10.10;99.90
9564;DHT22;4820;50.870;4.702;2024-03-23T16:31:07;10.10;99.90
9564;DHT22;4820;50.870;4.702;2024-03-23T16:33:35;10.10;99.90
9564;DHT22;4820;50.870;4.702;2024-03-23T16:36:08;10.10;99.90
9564;DHT22;4820;50.870;4.702;2024-03-23T16:38:36;10.10;99.90
9564;DHT22;4820;50.870;4.702;2024-03-23T16:41:04;10.10;99.90
9564;DHT22;4820;50.870;4.702;2024-03-23T16:43:35;10.10;99.90
9564;DHT22;4820;50.870;4.702;2024-03-23T16:48:31;10.20;99.90
9564;DHT22;4820;50.870;4.702;2024-03-23T16:50:58;10.30;99.90
9564;DHT22;4820;50.870;4.702;2024-03-23T16:53:24;10.30;99.90
9564;DHT22;4820;50.870;4.702;2024-03-23T16:56:00;10.30;99.90
9564;DHT22;4820;50.870;4.702;2024-03-23T16:58:30;10.30;99.90
9564;DHT22;4820;50.870;4.702;2024-03-23T17:00:56;10.30;99.90
9564;DHT22;4820;50.870;4.702;2024-03-23T17:03:27;10.40;99.90
9564;DHT22;4820;50.870;4.702;2024-03-23T17:05:53;10.40;99.90
9564;DHT22;4820;50.870;4.702;2024-03-23T17:08:19;10.40;99.90
9564;DHT22;4820;50.870;4.702;2024-03-23T17:10:46;10.30;99.90
9564;DHT22;4820;50.870;4.702;2024-03-23T17:13:12;10.30;99.90
9564;DHT22;4820;50.870;4.702;2024-03-23T17:15:47;10.20;99.90
9564;DHT22;4820;50.870;4.702;2024-03-23T17:18:12;10.20;99.90